Time,TemperatureF,DewpointF,PressureIn,WindDirection,WindDirectionDegrees,WindSpeedMPH,WindSpeedGustMPH,Humidity,HourlyPrecipIn,Conditions,Clouds,dailyrainin,SoftwareType,DateUTC
2013-07-26 00:00:00,78.1,73.2,30.00,WNW,292,0.0,1.0,85,0.00,,---,0.00,VWS V14.01,2013-07-26 05:00:00,
2013-07-26 00:30:00,76.6,72.8,30.00,WNW,292,0.0,0.0,88,0.00,,---,0.00,VWS V14.01,2013-07-26 05:30:00,
2013-07-26 01:00:00,75.7,72.6,30.00,WNW,292,0.0,1.0,90,0.00,,---,0.00,VWS V14.01,2013-07-26 06:00:00,
2013-07-26 01:30:00,74.4,71.9,30.00,WNW,292,0.0,0.0,92,0.00,,---,0.00,VWS V14.01,2013-07-26 06:30:00,
2013-07-26 02:00:00,74.4,71.9,29.99,WNW,292,0.0,1.0,92,0.00,,---,0.00,VWS V14.01,2013-07-26 07:00:00,
2013-07-26 02:30:00,73.6,71.8,29.99,WNW,292,0.0,0.0,94,0.00,,---,0.00,VWS V14.01,2013-07-26 07:30:00,
2013-07-26 03:00:00,73.3,71.5,29.99,West,270,0.0,1.0,94,0.00,,---,0.00,VWS V14.01,2013-07-26 08:00:00,
2013-07-26 03:30:00,72.8,71.3,29.99,West,270,0.0,0.0,95,0.00,,---,0.00,VWS V14.01,2013-07-26 08:30:00,
2013-07-26 04:00:00,72.2,71.0,30.00,West,270,0.0,0.0,96,0.00,,---,0.00,VWS V14.01,2013-07-26 09:00:00,
2013-07-26 04:30:00,71.8,70.6,30.00,West,270,0.0,0.0,96,0.00,,---,0.00,VWS V14.01,2013-07-26 09:30:00,
2013-07-26 05:00:00,71.3,70.4,30.01,West,270,0.0,0.0,97,0.00,,---,0.00,VWS V14.01,2013-07-26 10:00:00,
2013-07-26 05:30:00,70.9,70.0,30.01,West,270,0.0,0.0,97,0.00,,---,0.00,VWS V14.01,2013-07-26 10:30:00,
2013-07-26 06:00:00,71.3,70.4,30.01,West,270,0.0,0.0,97,0.00,,---,0.00,VWS V14.01,2013-07-26 11:00:00,
2013-07-26 06:04:00,70.9,70.0,30.01,West,270,0.0,0.0,97,0.00,,---,0.00,VWS V14.01,2013-07-26 11:04:00,
2013-07-26 06:09:00,70.3,69.4,30.01,West,271,0.0,0.0,97,0.00,,---,0.00,VWS V14.01,2013-07-26 11:09:00,
2013-07-26 06:14:00,70.4,69.5,30.01,West,271,0.0,0.0,97,0.00,,---,0.00,VWS V14.01,2013-07-26 11:14:00,
2013-07-26 06:19:00,70.4,69.5,30.02,West,271,0.0,0.0,97,0.00,,---,0.00,VWS V14.01,2013-07-26 11:19:00,
2013-07-26 06:24:00,70.3,69.4,30.02,West,271,0.0,0.0,97,0.00,,---,0.00,VWS V14.01,2013-07-26 11:24:00,
2013-07-26 06:29:00,70.4,69.5,30.01,West,271,0.0,0.0,97,0.00,,---,0.00,VWS V14.01,2013-07-26 11:29:00,
2013-07-26 06:30:00,70.4,69.5,30.01,West,271,0.0,0.0,97,0.00,,---,0.00,VWS V14.01,2013-07-26 11:30:00,
2013-07-26 06:34:00,70.5,69.6,30.01,West,269,0.0,0.0,97,0.00,,---,0.00,VWS V14.01,2013-07-26 11:34:00,
2013-07-26 06:39:00,70.5,69.6,30.01,West,269,0.0,0.0,97,0.00,,---,0.00,VWS V14.01,2013-07-26 11:39:00,
2013-07-26 06:44:00,70.6,69.7,30.02,West,270,0.0,0.0,97,0.00,,---,0.00,VWS V14.01,2013-07-26 11:44:00,
2013-07-26 06:49:00,70.8,70.2,30.02,West,270,0.0,0.0,98,0.00,,---,0.00,VWS V14.01,2013-07-26 11:49:00,
2013-07-26 06:54:00,71.1,70.5,30.02,West,270,0.0,0.0,98,0.00,,---,0.00,VWS V14.01,2013-07-26 11:54:00,
2013-07-26 06:59:00,72.1,71.5,30.02,West,270,0.0,0.0,98,0.00,,---,0.00,VWS V14.01,2013-07-26 11:59:00,
2013-07-26 07:00:00,72.0,71.4,30.02,West,269,0.0,0.0,98,0.00,,---,0.00,VWS V14.01,2013-07-26 12:00:00,
2013-07-26 07:04:00,72.9,72.3,30.02,West,270,0.0,0.0,98,0.00,,---,0.00,VWS V14.01,2013-07-26 12:04:00,
2013-07-26 07:09:00,73.2,72.6,30.02,West,270,0.0,0.0,98,0.00,,---,0.00,VWS V14.01,2013-07-26 12:09:00,
2013-07-26 07:14:00,73.7,73.1,30.02,West,270,0.0,0.0,98,0.00,,---,0.00,VWS V14.01,2013-07-26 12:14:00,
2013-07-26 07:19:00,74.1,73.5,30.03,West,270,0.0,0.0,98,0.00,,---,0.00,VWS V14.01,2013-07-26 12:19:00,
2013-07-26 07:24:00,74.5,73.6,30.03,West,270,0.0,0.0,97,0.00,,---,0.00,VWS V14.01,2013-07-26 12:24:00,
2013-07-26 07:29:00,75.0,73.8,30.03,West,270,0.0,0.0,96,0.00,,---,0.00,VWS V14.01,2013-07-26 12:29:00,
2013-07-26 07:30:00,74.9,73.7,30.03,West,270,0.0,0.0,96,0.00,,---,0.00,VWS V14.01,2013-07-26 12:30:00,
2013-07-26 07:34:00,75.4,73.9,30.03,West,270,0.0,0.0,95,0.00,,---,0.00,VWS V14.01,2013-07-26 12:34:00,
2013-07-26 07:39:00,75.9,73.4,30.03,West,269,0.0,0.0,92,0.00,,---,0.00,VWS V14.01,2013-07-26 12:39:00,
2013-07-26 07:44:00,76.5,73.7,30.03,West,270,0.0,0.0,91,0.00,,---,0.00,VWS V14.01,2013-07-26 12:44:00,
2013-07-26 07:49:00,76.8,73.0,30.03,West,269,0.0,0.0,88,0.00,,---,0.00,VWS V14.01,2013-07-26 12:49:00,
2013-07-26 07:54:00,77.0,72.8,30.03,NE,44,0.0,1.0,87,0.00,,---,0.00,VWS V14.01,2013-07-26 12:54:00,
2013-07-26 07:59:00,76.9,72.7,30.03,ENE,69,0.0,0.0,87,0.00,,---,0.00,VWS V14.01,2013-07-26 12:59:00,
2013-07-26 08:00:00,76.9,72.7,30.03,ENE,70,0.0,1.0,87,0.00,,---,0.00,VWS V14.01,2013-07-26 13:00:00,
2013-07-26 08:04:00,77.0,72.5,30.03,ESE,111,0.0,1.0,86,0.00,,---,0.00,VWS V14.01,2013-07-26 13:04:00,
2013-07-26 08:09:00,77.2,72.7,30.03,NNE,32,1.0,1.0,86,0.00,,---,0.00,VWS V14.01,2013-07-26 13:09:00,
2013-07-26 08:14:00,77.8,72.9,30.03,NE,43,0.0,1.0,85,0.00,,---,0.00,VWS V14.01,2013-07-26 13:14:00,
2013-07-26 08:19:00,78.6,73.0,30.03,East,95,0.0,1.0,83,0.00,,---,0.00,VWS V14.01,2013-07-26 13:19:00,
2013-07-26 08:24:00,79.4,73.8,30.04,SE,131,0.0,1.0,83,0.00,,---,0.00,VWS V14.01,2013-07-26 13:24:00,
2013-07-26 08:29:00,80.3,73.9,30.04,SE,129,0.0,0.0,81,0.00,,---,0.00,VWS V14.01,2013-07-26 13:29:00,
2013-07-26 08:30:00,80.2,74.2,30.04,SE,129,0.0,1.0,82,0.00,,---,0.00,VWS V14.01,2013-07-26 13:30:00,
2013-07-26 08:34:00,81.1,73.6,30.04,East,96,0.0,1.0,78,0.00,,---,0.00,VWS V14.01,2013-07-26 13:34:00,
2013-07-26 08:39:00,82.1,73.8,30.04,ENE,72,2.0,2.0,76,0.00,,---,0.00,VWS V14.01,2013-07-26 13:39:00,
2013-07-26 08:44:00,82.5,73.8,30.04,ESE,103,0.0,2.0,75,0.00,,---,0.00,VWS V14.01,2013-07-26 13:44:00,
2013-07-26 08:49:00,82.6,73.1,30.04,ESE,105,0.0,3.0,73,0.00,,---,0.00,VWS V14.01,2013-07-26 13:49:00,
2013-07-26 08:54:00,82.8,73.3,30.04,East,99,0.0,3.0,73,0.00,,---,0.00,VWS V14.01,2013-07-26 13:54:00,
2013-07-26 08:59:00,83.2,74.1,30.04,SSE,165,0.0,1.0,74,0.00,,---,0.00,VWS V14.01,2013-07-26 13:59:00,
2013-07-26 09:00:00,83.1,74.0,30.04,SSE,165,1.0,3.0,74,0.00,,---,0.00,VWS V14.01,2013-07-26 14:00:00,
2013-07-26 09:04:00,84.1,74.5,30.04,NE,43,0.0,1.0,73,0.00,,---,0.00,VWS V14.01,2013-07-26 14:04:00,
2013-07-26 09:09:00,84.8,74.8,30.04,NNW,339,0.0,2.0,72,0.00,,---,0.00,VWS V14.01,2013-07-26 14:09:00,
2013-07-26 09:14:00,85.5,75.4,30.04,ENE,69,0.0,2.0,72,0.00,,---,0.00,VWS V14.01,2013-07-26 14:14:00,
2013-07-26 09:19:00,86.0,74.2,30.04,East,100,1.0,2.0,68,0.00,,---,0.00,VWS V14.01,2013-07-26 14:19:00,
2013-07-26 09:24:00,85.9,74.6,30.04,SE,131,0.0,2.0,69,0.00,,---,0.00,VWS V14.01,2013-07-26 14:24:00,
2013-07-26 09:30:00,86.6,76.1,30.03,SE,129,0.0,0.0,71,0.00,,---,0.00,VWS V14.01,2013-07-26 14:30:00,
2013-07-26 09:35:00,87.7,75.8,30.04,SE,131,0.0,1.0,68,0.00,,---,0.00,VWS V14.01,2013-07-26 14:35:00,
2013-07-26 09:40:00,87.5,73.8,30.03,ESE,102,0.0,2.0,64,0.00,,---,0.00,VWS V14.01,2013-07-26 14:40:00,
2013-07-26 09:44:00,87.3,73.6,30.04,ESE,121,0.0,2.0,64,0.00,,---,0.00,VWS V14.01,2013-07-26 14:44:00,
2013-07-26 09:49:00,88.0,75.2,30.03,ESE,122,0.0,2.0,66,0.00,,---,0.00,VWS V14.01,2013-07-26 14:49:00,
2013-07-26 09:54:00,87.9,75.1,30.03,SE,129,2.0,2.0,66,0.00,,---,0.00,VWS V14.01,2013-07-26 14:54:00,
2013-07-26 09:59:00,87.7,74.5,30.04,ENE,70,1.0,1.0,65,0.00,,---,0.00,VWS V14.01,2013-07-26 14:59:00,
2013-07-26 10:00:00,87.7,75.4,30.04,ENE,70,1.0,2.0,67,0.00,,---,0.00,VWS V14.01,2013-07-26 15:00:00,
2013-07-26 10:04:00,87.7,74.5,30.03,East,95,1.0,2.0,65,0.00,,---,0.00,VWS V14.01,2013-07-26 15:04:00,
2013-07-26 10:09:00,88.2,75.0,30.04,SE,137,0.0,2.0,65,0.00,,---,0.00,VWS V14.01,2013-07-26 15:09:00,
2013-07-26 10:14:00,89.4,75.6,30.03,NNE,32,0.0,2.0,64,0.00,,---,0.00,VWS V14.01,2013-07-26 15:14:00,
2013-07-26 10:19:00,89.2,75.4,30.03,East,99,0.0,4.0,64,0.00,,---,0.00,VWS V14.01,2013-07-26 15:19:00,
2013-07-26 10:24:00,89.7,75.9,30.03,ESE,102,1.0,4.0,64,0.00,,---,0.00,VWS V14.01,2013-07-26 15:24:00,
2013-07-26 10:29:00,90.0,76.7,30.03,NNE,18,0.0,0.0,65,0.00,,---,0.00,VWS V14.01,2013-07-26 15:29:00,
2013-07-26 10:30:00,90.0,76.7,30.03,ESE,121,0.0,4.0,65,0.00,,---,0.00,VWS V14.01,2013-07-26 15:30:00,
2013-07-26 10:34:00,90.4,75.6,30.03,West,266,0.0,2.0,62,0.00,,---,0.00,VWS V14.01,2013-07-26 15:34:00,
2013-07-26 10:39:00,90.6,76.3,30.03,SSE,162,0.0,2.0,63,0.00,,---,0.00,VWS V14.01,2013-07-26 15:39:00,
2013-07-26 10:44:00,90.2,75.9,30.03,SE,137,2.0,4.0,63,0.00,,---,0.00,VWS V14.01,2013-07-26 15:44:00,
2013-07-26 10:49:00,90.0,76.2,30.03,East,86,0.0,4.0,64,0.00,,---,0.00,VWS V14.01,2013-07-26 15:49:00,
2013-07-26 10:54:00,90.5,77.1,30.03,ESE,116,1.0,5.0,65,0.00,,---,0.00,VWS V14.01,2013-07-26 15:54:00,
2013-07-26 10:59:00,91.1,76.8,30.03,ESE,120,1.0,1.0,63,0.00,,---,0.00,VWS V14.01,2013-07-26 15:59:00,
2013-07-26 11:00:00,91.0,77.1,30.03,SE,124,0.0,5.0,64,0.00,,---,0.00,VWS V14.01,2013-07-26 16:00:00,
2013-07-26 11:04:00,91.3,75.5,30.03,ESE,107,0.0,2.0,60,0.00,,---,0.00,VWS V14.01,2013-07-26 16:04:00,
2013-07-26 11:09:00,91.2,75.4,30.04,West,271,1.0,2.0,60,0.00,,---,0.00,VWS V14.01,2013-07-26 16:09:00,
2013-07-26 11:14:00,91.2,74.9,30.04,WNW,289,1.0,3.0,59,0.00,,---,0.00,VWS V14.01,2013-07-26 16:14:00,
2013-07-26 11:19:00,91.6,75.8,30.04,ENE,64,0.0,3.0,60,0.00,,---,0.00,VWS V14.01,2013-07-26 16:19:00,
2013-07-26 11:24:00,92.4,77.0,30.04,East,82,0.0,3.0,61,0.00,,---,0.00,VWS V14.01,2013-07-26 16:24:00,
2013-07-26 11:29:00,92.2,74.8,30.04,WSW,243,0.0,1.0,57,0.00,,---,0.00,VWS V14.01,2013-07-26 16:29:00,
2013-07-26 11:30:00,92.2,74.2,30.04,NW,304,1.0,4.0,56,0.00,,---,0.00,VWS V14.01,2013-07-26 16:30:00,
2013-07-26 11:34:00,92.2,76.8,30.04,SW,214,0.0,2.0,61,0.00,,---,0.00,VWS V14.01,2013-07-26 16:34:00,
2013-07-26 11:39:00,91.7,75.8,30.04,SE,143,0.0,2.0,60,0.00,,---,0.00,VWS V14.01,2013-07-26 16:39:00,
2013-07-26 11:44:00,91.7,75.3,30.04,SE,136,2.0,5.0,59,0.00,,---,0.00,VWS V14.01,2013-07-26 16:44:00,
2013-07-26 11:49:00,92.2,75.3,30.04,NW,326,2.0,6.0,58,0.00,,---,0.00,VWS V14.01,2013-07-26 16:49:00,
2013-07-26 11:54:00,91.9,74.0,30.04,ENE,71,1.0,6.0,56,0.00,,---,0.00,VWS V14.01,2013-07-26 16:54:00,
2013-07-26 11:59:00,91.6,77.2,30.04,SE,146,0.0,0.0,63,0.00,,---,0.00,VWS V14.01,2013-07-26 16:59:00,
2013-07-26 12:00:00,91.5,77.1,30.04,SSE,149,0.0,6.0,63,0.00,,---,0.00,VWS V14.01,2013-07-26 17:00:00,
2013-07-26 12:04:00,92.0,76.1,30.04,NE,39,0.0,0.0,60,0.00,,---,0.00,VWS V14.01,2013-07-26 17:04:00,
2013-07-26 12:09:00,91.6,75.8,30.04,SSW,211,0.0,5.0,60,0.00,,---,0.00,VWS V14.01,2013-07-26 17:09:00,
2013-07-26 12:14:00,91.5,76.2,30.04,NNE,20,2.0,5.0,61,0.00,,---,0.00,VWS V14.01,2013-07-26 17:14:00,
2013-07-26 12:19:00,91.5,75.7,30.03,NNW,341,3.0,5.0,60,0.00,,---,0.00,VWS V14.01,2013-07-26 17:19:00,
2013-07-26 12:24:00,91.8,75.9,30.03,SE,136,0.0,6.0,60,0.00,,---,0.00,VWS V14.01,2013-07-26 17:24:00,
2013-07-26 12:29:00,92.3,75.4,30.03,SSE,162,1.0,5.0,58,0.00,,---,0.00,VWS V14.01,2013-07-26 17:29:00,
2013-07-26 12:30:00,92.3,75.9,30.03,NW,304,0.0,6.0,59,0.00,,---,0.00,VWS V14.01,2013-07-26 17:30:00,
2013-07-26 12:34:00,92.5,75.1,30.02,NW,319,0.0,5.0,57,0.00,,---,0.00,VWS V14.01,2013-07-26 17:34:00,
2013-07-26 12:39:00,92.7,74.7,30.02,ENE,57,0.0,5.0,56,0.00,,---,0.00,VWS V14.01,2013-07-26 17:39:00,
2013-07-26 12:44:00,92.8,76.4,30.02,SSW,208,0.0,5.0,59,0.00,,---,0.00,VWS V14.01,2013-07-26 17:44:00,
2013-07-26 12:49:00,92.7,75.8,30.03,West,269,0.0,5.0,58,0.00,,---,0.00,VWS V14.01,2013-07-26 17:49:00,
2013-07-26 12:54:00,92.6,76.2,30.02,ESE,103,0.0,5.0,59,0.00,,---,0.00,VWS V14.01,2013-07-26 17:54:00,
2013-07-26 12:59:00,92.4,73.9,30.02,WNW,302,1.0,2.0,55,0.00,,---,0.00,VWS V14.01,2013-07-26 17:59:00,
2013-07-26 13:00:00,92.5,74.5,30.02,NW,320,2.0,5.0,56,0.00,,---,0.00,VWS V14.01,2013-07-26 18:00:00,
2013-07-26 13:04:00,92.4,74.4,30.02,NNE,20,4.0,4.0,56,0.00,,---,0.00,VWS V14.01,2013-07-26 18:04:00,
2013-07-26 13:09:00,92.8,73.7,30.01,SE,133,1.0,6.0,54,0.00,,---,0.00,VWS V14.01,2013-07-26 18:09:00,
2013-07-26 13:14:00,93.1,74.6,30.01,SE,131,1.0,6.0,55,0.00,,---,0.00,VWS V14.01,2013-07-26 18:14:00,
2013-07-26 13:19:00,93.8,75.2,30.01,SSE,162,0.0,6.0,55,0.00,,---,0.00,VWS V14.01,2013-07-26 18:19:00,
2013-07-26 13:24:00,94.0,75.4,30.01,West,278,0.0,6.0,55,0.00,,---,0.00,VWS V14.01,2013-07-26 18:24:00,
2013-07-26 13:29:00,93.4,74.8,30.01,NNE,16,0.0,0.0,55,0.00,,---,0.00,VWS V14.01,2013-07-26 18:29:00,
2013-07-26 13:30:00,93.5,74.4,30.01,North,1,0.0,6.0,54,0.00,,---,0.00,VWS V14.01,2013-07-26 18:30:00,
2013-07-26 13:34:00,92.9,77.0,30.00,SSW,204,0.0,1.0,60,0.00,,---,0.00,VWS V14.01,2013-07-26 18:34:00,
2013-07-26 13:39:00,92.9,75.4,30.00,NNE,27,2.0,2.0,57,0.00,,---,0.00,VWS V14.01,2013-07-26 18:39:00,
2013-07-26 13:44:00,93.4,74.3,30.00,South,173,0.0,2.0,54,0.00,,---,0.00,VWS V14.01,2013-07-26 18:44:00,
2013-07-26 13:49:00,93.8,74.1,30.00,North,4,0.0,2.0,53,0.00,,---,0.00,VWS V14.01,2013-07-26 18:49:00,
2013-07-26 13:54:00,93.6,73.3,30.00,WNW,290,0.0,3.0,52,0.00,,---,0.00,VWS V14.01,2013-07-26 18:54:00,
2013-07-26 13:59:00,93.8,72.9,29.99,NNE,15,0.0,2.0,51,0.00,,---,0.00,VWS V14.01,2013-07-26 18:59:00,
2013-07-26 14:00:00,93.8,73.5,30.00,NNW,336,1.0,4.0,52,0.00,,---,0.00,VWS V14.01,2013-07-26 19:00:00,
2013-07-26 14:04:00,94.1,70.8,29.99,NW,307,3.0,4.0,47,0.00,,---,0.00,VWS V14.01,2013-07-26 19:04:00,
2013-07-26 14:09:00,94.5,72.4,29.99,ESE,108,1.0,4.0,49,0.00,,---,0.00,VWS V14.01,2013-07-26 19:09:00,
2013-07-26 14:14:00,94.6,73.7,29.99,West,277,1.0,4.0,51,0.00,,---,0.00,VWS V14.01,2013-07-26 19:14:00,
2013-07-26 14:19:00,94.5,71.8,29.99,NE,53,0.0,4.0,48,0.00,,---,0.00,VWS V14.01,2013-07-26 19:19:00,
2013-07-26 14:24:00,94.6,73.1,29.99,ENE,64,0.0,4.0,50,0.00,,---,0.00,VWS V14.01,2013-07-26 19:24:00,
2013-07-26 14:29:00,94.5,71.2,29.98,East,92,1.0,1.0,47,0.00,,---,0.00,VWS V14.01,2013-07-26 19:29:00,
2013-07-26 14:30:00,94.5,69.9,29.98,North,352,0.0,7.0,45,0.00,,---,0.00,VWS V14.01,2013-07-26 19:30:00,
2013-07-26 14:34:00,94.5,71.2,29.98,NNW,335,2.0,5.0,47,0.00,,---,0.00,VWS V14.01,2013-07-26 19:34:00,
2013-07-26 14:39:00,94.2,70.3,29.98,NNE,25,2.0,5.0,46,0.00,,---,0.00,VWS V14.01,2013-07-26 19:39:00,
2013-07-26 14:44:00,93.4,71.4,29.98,WSW,256,0.0,5.0,49,0.00,,---,0.00,VWS V14.01,2013-07-26 19:44:00,
2013-07-26 14:49:00,92.9,72.7,29.98,WNW,298,0.0,5.0,52,0.00,,---,0.00,VWS V14.01,2013-07-26 19:49:00,
2013-07-26 14:54:00,92.9,73.8,29.98,North,357,2.0,5.0,54,0.00,,---,0.00,VWS V14.01,2013-07-26 19:54:00,
2013-07-26 14:59:00,92.5,72.9,29.98,NNW,342,3.0,4.0,53,0.00,,---,0.00,VWS V14.01,2013-07-26 19:59:00,
2013-07-26 15:00:00,92.6,72.4,29.98,NNW,344,1.0,5.0,52,0.00,,---,0.00,VWS V14.01,2013-07-26 20:00:00,
2013-07-26 15:04:00,92.9,72.7,29.98,NW,314,3.0,4.0,52,0.00,,---,0.00,VWS V14.01,2013-07-26 20:04:00,
2013-07-26 15:09:00,92.9,71.5,29.98,ENE,63,0.0,4.0,50,0.00,,---,0.00,VWS V14.01,2013-07-26 20:09:00,
2013-07-26 15:14:00,92.9,73.3,29.98,SW,226,0.0,4.0,53,0.00,,---,0.00,VWS V14.01,2013-07-26 20:14:00,
2013-07-26 15:19:00,93.1,71.1,29.98,NW,323,0.0,4.0,49,0.00,,---,0.00,VWS V14.01,2013-07-26 20:19:00,
2013-07-26 15:24:00,93.4,70.2,29.98,NNE,27,1.0,4.0,47,0.00,,---,0.00,VWS V14.01,2013-07-26 20:24:00,
2013-07-26 15:29:00,92.9,70.9,29.98,WNW,298,0.0,1.0,49,0.00,,---,0.00,VWS V14.01,2013-07-26 20:29:00,
2013-07-26 15:30:00,93.0,71.6,29.98,West,263,0.0,4.0,50,0.00,,---,0.00,VWS V14.01,2013-07-26 20:30:00,
2013-07-26 15:34:00,93.0,72.2,29.98,WNW,298,1.0,2.0,51,0.00,,---,0.00,VWS V14.01,2013-07-26 20:34:00,
2013-07-26 15:39:00,92.7,71.3,29.98,NW,323,1.0,7.0,50,0.00,,---,0.00,VWS V14.01,2013-07-26 20:39:00,
2013-07-26 15:44:00,92.9,72.7,29.98,WSW,238,1.0,7.0,52,0.00,,---,0.00,VWS V14.01,2013-07-26 20:44:00,
2013-07-26 15:49:00,93.4,73.2,29.98,ESE,121,0.0,7.0,52,0.00,,---,0.00,VWS V14.01,2013-07-26 20:49:00,
2013-07-26 15:54:00,93.8,71.8,29.97,SE,140,0.0,7.0,49,0.00,,---,0.00,VWS V14.01,2013-07-26 20:54:00,
2013-07-26 15:59:00,93.6,71.6,29.97,SW,226,0.0,1.0,49,0.00,,---,0.00,VWS V14.01,2013-07-26 20:59:00,
2013-07-26 16:00:00,93.6,71.6,29.97,SW,226,0.0,7.0,49,0.00,,---,0.00,VWS V14.01,2013-07-26 21:00:00,
2013-07-26 16:04:00,94.0,71.3,29.97,ESE,110,1.0,3.0,48,0.00,,---,0.00,VWS V14.01,2013-07-26 21:04:00,
2013-07-26 16:09:00,94.0,71.9,29.97,South,188,0.0,3.0,49,0.00,,---,0.00,VWS V14.01,2013-07-26 21:09:00,
2013-07-26 16:14:00,93.9,71.8,29.97,SSW,203,0.0,3.0,49,0.00,,---,0.00,VWS V14.01,2013-07-26 21:14:00,
2013-07-26 16:19:00,94.0,72.5,29.97,SSW,203,0.0,3.0,50,0.00,,---,0.00,VWS V14.01,2013-07-26 21:19:00,
2013-07-26 16:24:00,93.7,71.7,29.97,SW,218,0.0,3.0,49,0.00,,---,0.00,VWS V14.01,2013-07-26 21:24:00,
2013-07-26 16:29:00,93.4,70.8,29.97,WSW,252,0.0,0.0,48,0.00,,---,0.00,VWS V14.01,2013-07-26 21:29:00,
2013-07-26 16:30:00,93.4,70.8,29.97,West,274,0.0,3.0,48,0.00,,---,0.00,VWS V14.01,2013-07-26 21:30:00,
2013-07-26 16:34:00,92.9,70.3,29.97,NW,311,0.0,3.0,48,0.00,,---,0.00,VWS V14.01,2013-07-26 21:34:00,
2013-07-26 16:39:00,92.5,71.2,29.97,SW,229,0.0,3.0,50,0.00,,---,0.00,VWS V14.01,2013-07-26 21:39:00,
2013-07-26 16:44:00,92.3,71.0,29.97,South,171,0.0,3.0,50,0.00,,---,0.00,VWS V14.01,2013-07-26 21:44:00,
2013-07-26 16:49:00,92.4,70.5,29.97,NNE,25,0.0,3.0,49,0.00,,---,0.00,VWS V14.01,2013-07-26 21:49:00,
2013-07-26 16:54:00,92.5,71.8,29.97,East,84,0.0,3.0,51,0.00,,---,0.00,VWS V14.01,2013-07-26 21:54:00,
2013-07-26 16:59:00,92.5,70.6,29.97,ESE,118,0.0,1.0,49,0.00,,---,0.00,VWS V14.01,2013-07-26 21:59:00,
2013-07-26 17:00:00,92.5,70.6,29.97,NNE,32,1.0,3.0,49,0.00,,---,0.00,VWS V14.01,2013-07-26 22:00:00,
2013-07-26 17:04:00,92.7,70.8,29.96,East,80,0.0,3.0,49,0.00,,---,0.00,VWS V14.01,2013-07-26 22:04:00,
2013-07-26 17:09:00,92.5,71.8,29.96,ENE,67,0.0,3.0,51,0.00,,---,0.00,VWS V14.01,2013-07-26 22:09:00,
2013-07-26 17:14:00,92.3,71.6,29.96,NW,304,0.0,3.0,51,0.00,,---,0.00,VWS V14.01,2013-07-26 22:14:00,
2013-07-26 17:19:00,92.4,72.2,29.96,NNW,348,0.0,3.0,52,0.00,,---,0.00,VWS V14.01,2013-07-26 22:19:00,
2013-07-26 17:24:00,92.2,73.2,29.96,East,91,0.0,3.0,54,0.00,,---,0.00,VWS V14.01,2013-07-26 22:24:00,
2013-07-26 17:29:00,91.8,71.7,29.96,SW,235,0.0,0.0,52,0.00,,---,0.00,VWS V14.01,2013-07-26 22:29:00,
2013-07-26 17:30:00,91.9,72.9,29.96,SW,235,0.0,3.0,54,0.00,,---,0.00,VWS V14.01,2013-07-26 22:30:00,
2013-07-26 17:34:00,91.7,71.6,29.96,WSW,245,0.0,2.0,52,0.00,,---,0.00,VWS V14.01,2013-07-26 22:34:00,
2013-07-26 17:39:00,91.4,71.3,29.96,NW,321,0.0,4.0,52,0.00,,---,0.00,VWS V14.01,2013-07-26 22:39:00,
2013-07-26 17:44:00,90.9,72.5,29.96,NW,320,0.0,4.0,55,0.00,,---,0.00,VWS V14.01,2013-07-26 22:44:00,
2013-07-26 17:49:00,90.3,71.9,29.96,West,259,0.0,4.0,55,0.00,,---,0.00,VWS V14.01,2013-07-26 22:49:00,
2013-07-26 17:54:00,89.7,73.0,29.96,West,260,0.0,4.0,58,0.00,,---,0.00,VWS V14.01,2013-07-26 22:54:00,
2013-07-26 17:59:00,89.5,73.8,29.96,WNW,288,0.0,0.0,60,0.00,,---,0.00,VWS V14.01,2013-07-26 22:59:00,
2013-07-26 18:00:00,89.5,73.3,29.96,West,271,0.0,4.0,59,0.00,,---,0.00,VWS V14.01,2013-07-26 23:00:00,
2013-07-26 18:04:00,89.1,72.9,29.95,NE,37,0.0,0.0,59,0.00,,---,0.00,VWS V14.01,2013-07-26 23:04:00,
2013-07-26 18:09:00,89.0,73.8,29.95,NE,37,0.0,0.0,61,0.00,,---,0.00,VWS V14.01,2013-07-26 23:09:00,
2013-07-26 18:14:00,89.4,73.2,29.95,SW,231,0.0,1.0,59,0.00,,---,0.00,VWS V14.01,2013-07-26 23:14:00,
2013-07-26 18:19:00,89.5,71.7,29.95,WSW,253,0.0,3.0,56,0.00,,---,0.00,VWS V14.01,2013-07-26 23:19:00,
2013-07-26 18:24:00,89.5,72.3,29.95,NW,315,1.0,4.0,57,0.00,,---,0.00,VWS V14.01,2013-07-26 23:24:00,
2013-07-26 18:29:00,89.5,71.2,29.95,NNW,343,0.0,0.0,55,0.00,,---,0.00,VWS V14.01,2013-07-26 23:29:00,
2013-07-26 18:30:00,89.5,71.2,29.95,NW,316,0.0,5.0,55,0.00,,---,0.00,VWS V14.01,2013-07-26 23:30:00,
2013-07-26 18:34:00,89.5,70.7,29.95,NW,318,1.0,6.0,54,0.00,,---,0.00,VWS V14.01,2013-07-26 23:34:00,
2013-07-26 18:39:00,89.2,70.9,29.95,NW,326,0.0,6.0,55,0.00,,---,0.00,VWS V14.01,2013-07-26 23:39:00,
2013-07-26 18:44:00,88.8,71.1,29.95,NW,313,0.0,6.0,56,0.00,,---,0.00,VWS V14.01,2013-07-26 23:44:00,
2013-07-26 18:49:00,88.3,71.2,29.95,North,8,0.0,6.0,57,0.00,,---,0.00,VWS V14.01,2013-07-26 23:49:00,
2013-07-26 18:54:00,88.0,71.4,29.95,NNE,18,0.0,6.0,58,0.00,,---,0.00,VWS V14.01,2013-07-26 23:54:00,
2013-07-26 18:59:00,87.6,71.5,29.95,NNE,13,0.0,0.0,59,0.00,,---,0.00,VWS V14.01,2013-07-26 23:59:00,
2013-07-26 19:00:00,87.7,71.6,29.95,NNE,13,0.0,6.0,59,0.00,,---,0.00,VWS V14.01,2013-07-27 00:00:00,
2013-07-26 19:04:00,87.2,71.6,29.95,NNE,13,0.0,1.0,60,0.00,,---,0.00,VWS V14.01,2013-07-27 00:04:00,
2013-07-26 19:09:00,86.6,71.6,29.96,North,6,0.0,1.0,61,0.00,,---,0.00,VWS V14.01,2013-07-27 00:09:00,
2013-07-26 19:14:00,86.1,72.0,29.96,North,6,0.0,1.0,63,0.00,,---,0.00,VWS V14.01,2013-07-27 00:14:00,
2013-07-26 19:19:00,85.4,72.8,29.96,North,6,0.0,1.0,66,0.00,,---,0.00,VWS V14.01,2013-07-27 00:19:00,
2013-07-26 19:24:00,84.2,72.1,29.96,North,6,0.0,1.0,67,0.00,,---,0.00,VWS V14.01,2013-07-27 00:24:00,
2013-07-26 19:29:00,83.3,72.1,29.96,North,6,0.0,0.0,69,0.00,,---,0.00,VWS V14.01,2013-07-27 00:29:00,
2013-07-26 19:30:00,83.4,71.7,29.96,North,6,0.0,1.0,68,0.00,,---,0.00,VWS V14.01,2013-07-27 00:30:00,
2013-07-26 19:34:00,82.6,71.8,29.96,North,6,0.0,0.0,70,0.00,,---,0.00,VWS V14.01,2013-07-27 00:34:00,
2013-07-26 19:39:00,82.0,71.7,29.96,North,6,0.0,0.0,71,0.00,,---,0.00,VWS V14.01,2013-07-27 00:39:00,
2013-07-26 19:44:00,81.5,72.0,29.96,North,6,0.0,0.0,73,0.00,,---,0.00,VWS V14.01,2013-07-27 00:44:00,
2013-07-26 19:49:00,81.0,71.5,29.96,North,6,0.0,0.0,73,0.00,,---,0.00,VWS V14.01,2013-07-27 00:49:00,
2013-07-26 19:54:00,80.5,71.5,29.96,North,6,0.0,0.0,74,0.00,,---,0.00,VWS V14.01,2013-07-27 00:54:00,
2013-07-26 19:59:00,80.1,71.5,29.96,North,6,0.0,0.0,75,0.00,,---,0.00,VWS V14.01,2013-07-27 00:59:00,
2013-07-26 20:00:00,80.1,71.5,29.96,North,6,0.0,0.0,75,0.00,,---,0.00,VWS V14.01,2013-07-27 01:00:00,
2013-07-26 20:04:00,79.6,71.4,29.96,North,6,0.0,0.0,76,0.00,,---,0.00,VWS V14.01,2013-07-27 01:04:00,
2013-07-26 20:09:00,79.2,71.4,29.96,North,6,0.0,0.0,77,0.00,,---,0.00,VWS V14.01,2013-07-27 01:09:00,
2013-07-26 20:14:00,78.8,71.4,29.96,North,6,0.0,0.0,78,0.00,,---,0.00,VWS V14.01,2013-07-27 01:14:00,
2013-07-26 20:19:00,78.4,71.0,29.96,North,6,0.0,0.0,78,0.00,,---,0.00,VWS V14.01,2013-07-27 01:19:00,
2013-07-26 20:24:00,78.1,71.1,29.96,North,6,0.0,0.0,79,0.00,,---,0.00,VWS V14.01,2013-07-27 01:24:00,
2013-07-26 20:29:00,77.8,71.1,29.96,North,6,0.0,0.0,80,0.00,,---,0.00,VWS V14.01,2013-07-27 01:29:00,
2013-07-26 20:30:00,77.8,71.1,29.96,North,6,0.0,0.0,80,0.00,,---,0.00,VWS V14.01,2013-07-27 01:30:00,
2013-07-26 20:34:00,77.5,70.8,29.96,North,6,0.0,0.0,80,0.00,,---,0.00,VWS V14.01,2013-07-27 01:34:00,
2013-07-26 20:39:00,77.3,71.0,29.96,North,6,0.0,0.0,81,0.00,,---,0.00,VWS V14.01,2013-07-27 01:39:00,
2013-07-26 20:44:00,77.0,71.1,29.96,North,6,0.0,0.0,82,0.00,,---,0.00,VWS V14.01,2013-07-27 01:44:00,
2013-07-26 20:49:00,76.8,70.9,29.97,North,6,0.0,0.0,82,0.00,,---,0.00,VWS V14.01,2013-07-27 01:49:00,
2013-07-26 20:54:00,76.6,71.1,29.97,North,6,0.0,0.0,83,0.00,,---,0.00,VWS V14.01,2013-07-27 01:54:00,
2013-07-26 20:59:00,76.5,71.3,29.97,North,6,0.0,0.0,84,0.00,,---,0.00,VWS V14.01,2013-07-27 01:59:00,
2013-07-26 21:00:00,76.5,71.3,29.96,North,6,0.0,0.0,84,0.00,,---,0.00,VWS V14.01,2013-07-27 02:00:00,
2013-07-26 21:04:00,76.3,71.1,29.97,North,6,0.0,0.0,84,0.00,,---,0.00,VWS V14.01,2013-07-27 02:04:00,
2013-07-26 21:09:00,76.2,71.4,29.97,North,6,0.0,0.0,85,0.00,,---,0.00,VWS V14.01,2013-07-27 02:09:00,
2013-07-26 21:14:00,75.9,71.4,29.97,ENE,78,0.0,0.0,86,0.00,,---,0.00,VWS V14.01,2013-07-27 02:14:00,
2013-07-26 21:19:00,75.8,71.7,29.97,East,82,0.0,0.0,87,0.00,,---,0.00,VWS V14.01,2013-07-27 02:19:00,
2013-07-26 21:24:00,75.6,71.5,29.97,East,82,0.0,0.0,87,0.00,,---,0.00,VWS V14.01,2013-07-27 02:24:00,
2013-07-26 21:29:00,75.6,71.5,29.97,North,353,0.0,0.0,87,0.00,,---,0.00,VWS V14.01,2013-07-27 02:29:00,
2013-07-26 21:30:00,75.5,71.4,29.97,North,353,0.0,1.0,87,0.00,,---,0.00,VWS V14.01,2013-07-27 02:30:00,
2013-07-26 21:34:00,75.7,71.2,29.97,SE,127,0.0,1.0,86,0.00,,---,0.00,VWS V14.01,2013-07-27 02:34:00,
2013-07-26 21:39:00,75.8,71.3,29.97,SE,127,0.0,1.0,86,0.00,,---,0.00,VWS V14.01,2013-07-27 02:39:00,
2013-07-26 21:44:00,75.8,71.3,29.97,SE,127,0.0,1.0,86,0.00,,---,0.00,VWS V14.01,2013-07-27 02:44:00,
2013-07-26 21:49:00,75.7,71.2,29.97,SE,125,0.0,1.0,86,0.00,,---,0.00,VWS V14.01,2013-07-27 02:49:00,
2013-07-26 21:54:00,75.7,71.2,29.97,SE,127,0.0,1.0,86,0.00,,---,0.00,VWS V14.01,2013-07-27 02:54:00,
2013-07-26 21:59:00,75.6,71.1,29.97,SE,127,0.0,0.0,86,0.00,,---,0.00,VWS V14.01,2013-07-27 02:59:00,
2013-07-26 22:00:00,75.6,71.1,29.97,SE,127,0.0,1.0,86,0.00,,---,0.00,VWS V14.01,2013-07-27 03:00:00,
2013-07-26 22:04:00,75.5,71.4,29.96,SE,127,0.0,0.0,87,0.00,,---,0.00,VWS V14.01,2013-07-27 03:04:00,
2013-07-26 22:09:00,75.3,70.8,29.96,SE,126,0.0,0.0,86,0.00,,---,0.00,VWS V14.01,2013-07-27 03:09:00,
2013-07-26 22:14:00,75.0,70.9,29.96,SE,126,0.0,0.0,87,0.00,,---,0.00,VWS V14.01,2013-07-27 03:14:00,
2013-07-26 22:19:00,74.9,70.8,29.96,SE,125,0.0,0.0,87,0.00,,---,0.00,VWS V14.01,2013-07-27 03:19:00,
2013-07-26 22:24:00,74.8,71.0,29.96,SE,125,0.0,0.0,88,0.00,,---,0.00,VWS V14.01,2013-07-27 03:24:00,
2013-07-26 22:29:00,74.6,70.8,29.96,SE,125,0.0,0.0,88,0.00,,---,0.00,VWS V14.01,2013-07-27 03:29:00,
2013-07-26 22:30:00,74.6,70.8,29.96,SE,126,0.0,0.0,88,0.00,,---,0.00,VWS V14.01,2013-07-27 03:30:00,
2013-07-26 22:34:00,74.4,70.6,29.96,SE,125,0.0,0.0,88,0.00,,---,0.00,VWS V14.01,2013-07-27 03:34:00,
2013-07-26 22:39:00,74.2,70.4,29.96,SE,125,0.0,0.0,88,0.00,,---,0.00,VWS V14.01,2013-07-27 03:39:00,
2013-07-26 22:44:00,74.1,70.7,29.96,SE,126,0.0,0.0,89,0.00,,---,0.00,VWS V14.01,2013-07-27 03:44:00,
2013-07-26 22:49:00,74.0,70.6,29.97,SE,125,0.0,0.0,89,0.00,,---,0.00,VWS V14.01,2013-07-27 03:49:00,
2013-07-26 22:54:00,73.8,70.4,29.97,SE,126,0.0,0.0,89,0.00,,---,0.00,VWS V14.01,2013-07-27 03:54:00,
2013-07-26 22:59:00,73.7,70.6,29.96,SE,125,0.0,0.0,90,0.00,,---,0.00,VWS V14.01,2013-07-27 03:59:00,
2013-07-26 23:00:00,73.7,70.6,29.96,SE,125,0.0,0.0,90,0.00,,---,0.00,VWS V14.01,2013-07-27 04:00:00,
2013-07-26 23:01:00,73.7,70.6,29.96,SE,126,0.0,0.0,90,0.00,,---,0.00,VWS V14.01,2013-07-27 04:01:00,
2013-07-26 23:06:00,73.6,70.5,29.96,SE,125,0.0,0.0,90,0.00,,---,0.00,VWS V14.01,2013-07-27 04:06:00,
2013-07-26 23:11:00,73.5,70.4,29.95,SE,125,0.0,0.0,90,0.00,,---,0.00,VWS V14.01,2013-07-27 04:11:00,
2013-07-26 23:17:00,73.4,70.6,29.95,SE,125,0.0,0.0,91,0.00,,---,0.00,VWS V14.01,2013-07-27 04:17:00,
2013-07-26 23:22:00,73.4,70.6,29.95,SE,125,0.0,0.0,91,0.00,,---,0.00,VWS V14.01,2013-07-27 04:22:00,
2013-07-26 23:27:00,73.3,70.5,29.96,SE,125,0.0,0.0,91,0.00,,---,0.00,VWS V14.01,2013-07-27 04:27:00,
2013-07-26 23:30:00,73.3,70.5,29.96,SE,125,0.0,0.0,91,0.00,,---,0.00,VWS V14.01,2013-07-27 04:30:00,
2013-07-26 23:32:00,73.3,70.8,29.95,SE,126,0.0,0.0,92,0.00,,---,0.00,VWS V14.01,2013-07-27 04:32:00,
2013-07-26 23:37:00,73.2,70.7,29.96,SE,125,0.0,0.0,92,0.00,,---,0.00,VWS V14.01,2013-07-27 04:37:00,
2013-07-26 23:42:00,73.2,70.7,29.95,SE,125,0.0,0.0,92,0.00,,---,0.00,VWS V14.01,2013-07-27 04:42:00,
2013-07-26 23:47:00,73.1,70.6,29.96,SE,127,0.0,0.0,92,0.00,,---,0.00,VWS V14.01,2013-07-27 04:47:00,
2013-07-26 23:52:00,73.1,71.0,29.96,SE,127,0.0,0.0,93,0.00,,---,0.00,VWS V14.01,2013-07-27 04:52:00,
2013-07-26 23:57:00,73.0,70.5,29.96,SE,127,0.0,0.0,92,0.00,,---,0.00,VWS V14.01,2013-07-27 04:57:00,